Weymouth, MA

9:34 PM EDT on July 04, 2015 (GMT -0400)
Rockland Fire HQ | | Change Station
CLOSE
Current Station
Personal Weather Station
Location: Rockland, MA
Elevation: 161 ft
Nearby Weather Stations

Elev 161 ft 42.13 °N, 70.92 °W | Updated 39 seconds ago

Mostly Cloudy
Mostly Cloudy
62.3 °F
Feels Like 62.3 °F
N
0.0
Wind Variable Wind from ESE
Gusts 0.0 mph

Today
High -- | Low -- °F
--% Chance of Precip.
Yesterday
High -- | Low -- °F
Precip. -- in
5:12 AM 8:23 PM
Waning Gibbous, 89% visible
Pressure 29.95 in
Visibility 10.0 miles
Clouds Clear
Dew Point 56 °F
Humidity 81%
Rainfall 0.00 in
Snow Depth Not available.
UV 0 out of 12
Pollen 1.90 out of 12
Air Quality Not available.
Flu Activity Not available.
METAR KOWD 042353Z 07004KT 10SM CLR 20/13 A2995 RMK AO2 SLP140 60000 T02000133 10244 20200 53001

More Conditions Fewer Conditions

Pressure 29.95 in
Visibility 10.0 miles
Clouds Clear
Dew Point 56 °F
Humidity 81%
Rainfall 0.00 in
Snow Depth Not available.
UV 0 out of 12
Pollen 1.90 out of 12
Air Quality Not available.
Flu Activity Not available.
METAR KOWD 042353Z 07004KT 10SM CLR 20/13 A2995 RMK AO2 SLP140 60000 T02000133 10244 20200 53001

More Conditions Fewer Conditions

10-Day Weather Forecast

×

Almanac

Astronomy

Jul. 04, 2015 Rise Set
Actual Time
Civil Twilight
Nautical Twilight
Astronomical Twilight
Moon
Length of Visible Light
Length of Day
Tomorrow will be .
, % of the Moon is Illuminated

Today's Extremes

State Highs State Lows

Community

WunderPhotos

Upload Photos

1,835,138 photos uploaded!

WunderBlogs® & News

Nearby

Air Quality

  Air Quality AQ Index Pollutant
Not available.

Snow Depth

Station Depth Elevation

Earthquake Activity

City Distance Mag. Time & Date
Minimum magnitude displayed is 2.5.

Coastal Water Temperatures

Place Temperature

Stations

Nearby Weather Stations

Station Location Temp. Windchill Dew Point Humidity Wind Precip. Elev Updated Type